Time;durP1;ratioP1;P1;durP2;ratioP2;P2;SDS_P1;SDS_P2;PMS_P1;PMS_P2;Temp;Humidity;BMP_temperature;BMP_pressure;BME280_temperature;BME280_humidity;BME280_pressure;Samples;Min_cycle;Max_cycle;Signal;HPM_P1;HPM_P2
2023/06/30 00:01:25;;;;;;;19.52;11.15;;;;;;;18.45;100.00;99650.88;5046920;28;20049;-64
2023/06/30 00:03:52;;;;;;;15.63;8.45;;;;;;;18.44;100.00;99651.81;5046994;28;20025;-64
2023/06/30 00:06:17;;;;;;;17.65;10.80;;;;;;;18.48;100.00;99651.63;5046901;28;20028;-65
2023/06/30 00:08:43;;;;;;;22.40;9.32;;;;;;;18.44;100.00;99643.91;5046663;28;20030;-64
2023/06/30 00:11:09;;;;;;;14.43;8.30;;;;;;;18.45;100.00;99650.88;5046964;28;20021;-64
2023/06/30 00:13:35;;;;;;;16.33;8.55;;;;;;;18.43;100.00;99644.84;5046818;28;20096;-64
2023/06/30 00:16:00;;;;;;;13.13;7.15;;;;;;;18.41;100.00;99643.22;5046849;28;20036;-64
2023/06/30 00:18:26;;;;;;;10.98;5.38;;;;;;;18.37;100.00;99637.28;5046804;28;20043;-64
2023/06/30 00:20:54;;;;;;;7.50;5.40;;;;;;;18.23;100.00;99624.06;5046413;28;20032;-62
2023/06/30 00:23:20;;;;;;;12.32;5.45;;;;;;;18.25;100.00;99632.69;5046337;28;20500;-62
2023/06/30 00:25:45;;;;;;;13.23;6.25;;;;;;;18.20;100.00;99641.66;5046536;28;20057;-61
2023/06/30 00:28:11;;;;;;;10.80;6.15;;;;;;;18.21;100.00;99632.03;5046568;28;20026;-61
2023/06/30 00:30:37;;;;;;;11.55;6.78;;;;;;;18.15;100.00;99637.56;5046490;28;20025;-61
2023/06/30 00:33:02;;;;;;;9.65;5.45;;;;;;;18.12;100.00;99633.34;5046606;28;20017;-61
2023/06/30 00:35:28;;;;;;;10.98;5.65;;;;;;;18.06;100.00;99634.50;5046123;28;20052;-61
2023/06/30 00:37:53;;;;;;;10.63;5.55;;;;;;;18.04;100.00;99633.72;5045788;28;20028;-61
2023/06/30 00:40:18;;;;;;;11.00;5.32;;;;;;;17.95;100.00;99616.66;5046379;28;20025;-61
2023/06/30 00:42:45;;;;;;;9.80;5.43;;;;;;;18.00;100.00;99624.31;5046080;28;20049;-60
2023/06/30 00:45:11;;;;;;;8.65;5.60;;;;;;;17.98;100.00;99620.91;5046147;28;20029;-60
2023/06/30 00:47:36;;;;;;;11.60;5.60;;;;;;;18.02;100.00;99632.09;5045994;28;20017;-61
2023/06/30 00:50:03;;;;;;;10.82;5.35;;;;;;;17.97;100.00;99624.47;5046166;28;20110;-61
2023/06/30 00:52:28;;;;;;;11.02;5.25;;;;;;;17.94;100.00;99621.97;5045787;28;20029;-61
2023/06/30 00:54:54;;;;;;;7.78;3.85;;;;;;;17.90;100.00;99623.06;5045857;28;20018;-62
2023/06/30 00:57:19;;;;;;;8.88;5.28;;;;;;;17.87;100.00;99617.97;5046093;28;20026;-62
2023/06/30 00:59:45;;;;;;;9.27;5.50;;;;;;;17.82;100.00;99621.72;5045803;28;20036;-62
2023/06/30 01:02:22;;;;;;;12.15;4.97;;;;;;;17.75;100.00;99615.06;5045931;28;20029;-62
2023/06/30 01:05:10;;;;;;;11.63;6.05;;;;;;;17.73;100.00;99624.81;5045774;28;20052;-62
2023/06/30 01:07:58;;;;;;;9.68;4.53;;;;;;;17.66;100.00;99618.16;5045642;28;20028;-62
2023/06/30 01:10:26;;;;;;;9.48;4.47;;;;;;;17.61;100.00;99613.13;5045303;28;20028;-61
2023/06/30 01:12:52;;;;;;;7.57;5.03;;;;;;;17.59;100.00;99613.22;5045588;28;20017;-62
2023/06/30 01:15:18;;;;;;;7.28;4.28;;;;;;;17.56;100.00;99605.50;5045447;28;20028;-61
2023/06/30 01:17:48;;;;;;;8.00;5.18;;;;;;;17.55;100.00;99602.97;5045725;28;20052;-62
2023/06/30 01:20:16;;;;;;;7.88;5.10;;;;;;;17.55;100.00;99614.31;5045405;28;20021;-61
2023/06/30 01:22:48;;;;;;;6.55;4.72;;;;;;;17.56;100.00;99605.50;5045235;28;20033;-62
2023/06/30 01:25:20;;;;;;;9.93;4.07;;;;;;;17.57;100.00;99609.81;5045617;28;20081;-60
2023/06/30 01:27:46;;;;;;;9.25;3.80;;;;;;;17.51;100.00;99607.50;5045564;28;20040;-61
2023/06/30 01:30:13;;;;;;;14.43;4.72;;;;;;;17.48;100.00;99596.34;5045218;28;20537;-62
2023/06/30 01:32:39;;;;;;;6.95;3.70;;;;;;;17.42;100.00;99608.81;5045377;28;20105;-62
2023/06/30 01:35:05;;;;;;;6.38;3.30;;;;;;;17.41;100.00;99608.91;5045189;28;20053;-60
2023/06/30 01:37:30;;;;;;;6.00;3.22;;;;;;;17.33;100.00;99607.50;5045071;28;20041;-61
2023/06/30 01:39:58;;;;;;;4.90;2.53;;;;;;;17.28;100.00;99606.03;5045316;28;20072;-61
2023/06/30 01:42:24;;;;;;;4.93;1.92;;;;;;;17.24;100.00;99605.31;5044994;28;20036;-60
2023/06/30 01:44:50;;;;;;;4.28;1.20;;;;;;;17.17;100.00;99601.31;5045323;28;20021;-61
2023/06/30 01:47:16;;;;;;;2.00;1.52;;;;;;;17.06;100.00;99607.91;5045200;28;20053;-60
2023/06/30 01:49:42;;;;;;;5.93;1.85;;;;;;;16.99;100.00;99601.25;5044854;28;20029;-61
2023/06/30 01:52:08;;;;;;;6.18;1.88;;;;;;;16.92;100.00;99597.22;5044592;28;20021;-60
2023/06/30 01:54:33;;;;;;;3.88;1.52;;;;;;;16.87;100.00;99599.22;5045209;28;20025;-60
2023/06/30 01:56:59;;;;;;;6.25;1.70;;;;;;;16.80;100.00;99604.78;5045092;28;20025;-60
2023/06/30 01:59:24;;;;;;;2.45;1.58;;;;;;;16.71;100.00;99581.59;5045133;28;20021;-59
2023/06/30 02:01:49;;;;;;;6.20;1.95;;;;;;;16.76;100.00;99599.75;5045232;28;20022;-59
2023/06/30 02:04:15;;;;;;;4.97;2.03;;;;;;;16.73;100.00;99595.47;5045021;28;20025;-58
2023/06/30 02:06:42;;;;;;;4.10;1.52;;;;;;;16.68;100.00;99600.94;5048141;28;20492;-59
2023/06/30 02:09:08;;;;;;;3.00;1.08;;;;;;;16.62;100.00;99595.13;5048989;28;20021;-59
2023/06/30 02:11:33;;;;;;;1.35;1.05;;;;;;;16.61;100.00;99596.94;5048992;28;20099;-59
2023/06/30 02:13:59;;;;;;;7.80;1.27;;;;;;;16.54;100.00;99591.13;5048948;28;20171;-60
2023/06/30 02:16:24;;;;;;;4.13;0.95;;;;;;;16.53;100.00;99591.19;5048883;28;20021;-60
2023/06/30 02:18:54;;;;;;;1.77;1.20;;;;;;;16.48;100.00;99589.59;5049022;28;20025;-60
2023/06/30 02:21:20;;;;;;;1.52;1.25;;;;;;;16.50;100.00;99594.81;5048650;28;20037;-60
2023/06/30 02:23:46;;;;;;;1.58;1.05;;;;;;;16.46;100.00;99582.75;5048686;28;20033;-60
2023/06/30 02:26:11;;;;;;;2.97;1.42;;;;;;;16.43;100.00;99585.53;5048699;28;20044;-58
2023/06/30 02:28:36;;;;;;;4.47;2.13;;;;;;;16.40;100.00;99581.28;5048768;28;20565;-60
2023/06/30 02:31:02;;;;;;;5.53;1.52;;;;;;;16.37;100.00;99591.91;5048671;28;20029;-61
2023/06/30 02:33:28;;;;;;;9.02;1.55;;;;;;;16.32;100.00;99599.13;5048625;28;20059;-59
2023/06/30 02:35:53;;;;;;;5.47;1.08;;;;;;;16.27;100.00;99603.69;5048517;28;20060;-60
2023/06/30 02:38:19;;;;;;;3.83;2.08;;;;;;;16.18;100.00;99600.56;5048258;28;20401;-58
2023/06/30 02:40:45;;;;;;;4.57;1.35;;;;;;;16.13;100.00;99601.72;5048645;28;20470;-60
2023/06/30 02:43:10;;;;;;;4.38;1.42;;;;;;;15.98;100.00;99609.31;5048236;28;20043;-61
2023/06/30 02:45:35;;;;;;;14.18;1.63;;;;;;;15.91;100.00;99603.47;5048426;28;20584;-60
2023/06/30 02:48:01;;;;;;;1.65;1.13;;;;;;;15.84;100.00;99607.28;5048287;28;20373;-59
2023/06/30 02:50:30;;;;;;;7.43;1.13;;;;;;;15.80;100.00;99619.63;5048161;28;20033;-60
2023/06/30 02:53:00;;;;;;;3.40;1.13;;;;;;;15.72;100.00;99606.88;5048083;28;20029;-59
2023/06/30 02:55:26;;;;;;;6.13;1.33;;;;;;;15.66;100.00;99611.53;5048178;28;20037;-59
2023/06/30 02:57:52;;;;;;;7.60;1.80;;;;;;;15.61;100.00;99616.94;5048260;28;20060;-60
2023/06/30 03:00:18;;;;;;;8.95;0.95;;;;;;;15.56;100.00;99618.94;5048099;28;20029;-57
2023/06/30 03:02:43;;;;;;;1.88;0.90;;;;;;;15.49;100.00;99618.34;5047988;28;20044;-58
2023/06/30 03:05:09;;;;;;;1.77;1.25;;;;;;;15.42;100.00;99615.13;5047950;28;20025;-60
2023/06/30 03:07:35;;;;;;;1.40;0.60;;;;;;;15.43;100.00;99616.81;5047833;28;20468;-60
2023/06/30 03:10:01;;;;;;;8.85;1.48;;;;;;;15.44;100.00;99623.75;5048012;28;20025;-60
2023/06/30 03:12:26;;;;;;;3.67;1.00;;;;;;;15.38;100.00;99623.16;5047798;28;20085;-60
2023/06/30 03:14:52;;;;;;;1.85;0.95;;;;;;;15.35;99.46;99616.28;5047927;28;20108;-61
2023/06/30 03:17:17;;;;;;;2.17;1.00;;;;;;;15.31;98.96;99630.38;5047697;28;20025;-60
2023/06/30 03:19:43;;;;;;;5.00;1.00;;;;;;;15.24;98.72;99625.41;5047606;28;20029;-60
2023/06/30 03:22:09;;;;;;;3.30;1.25;;;;;;;15.28;98.56;99635.75;5047343;28;20052;-60
2023/06/30 03:24:34;;;;;;;7.75;1.27;;;;;;;15.25;98.37;99636.72;5047798;28;20025;-60
2023/06/30 03:27:00;;;;;;;1.92;1.00;;;;;;;15.22;98.23;99627.22;5047451;28;20032;-59
2023/06/30 03:29:26;;;;;;;2.75;1.23;;;;;;;15.18;97.92;99635.25;5047565;28;20051;-58
2023/06/30 03:31:51;;;;;;;3.13;1.95;;;;;;;15.16;97.95;99624.88;5047473;28;20029;-60
2023/06/30 03:34:16;;;;;;;4.60;2.00;;;;;;;15.13;97.29;99637.22;5047464;28;20049;-60
2023/06/30 03:36:42;;;;;;;5.65;1.38;;;;;;;15.07;97.06;99628.72;5046267;28;20516;-59
2023/06/30 03:39:07;;;;;;;8.15;2.22;;;;;;;14.94;96.54;99612.66;5047029;28;20439;-59
2023/06/30 03:41:33;;;;;;;7.80;1.67;;;;;;;14.99;95.92;99628.16;5047068;28;20021;-59
2023/06/30 03:43:58;;;;;;;7.93;2.38;;;;;;;14.97;96.03;99630.84;5047262;28;20022;-59
2023/06/30 03:46:23;;;;;;;7.00;1.90;;;;;;;14.93;95.91;99621.41;5047271;28;20105;-58
2023/06/30 03:48:49;;;;;;;13.10;1.92;;;;;;;14.91;95.34;99618.00;5047142;28;20512;-59
2023/06/30 03:51:14;;;;;;;4.90;1.15;;;;;;;14.95;95.95;99624.81;5047022;28;20025;-59
2023/06/30 03:53:43;;;;;;;5.95;1.42;;;;;;;14.96;96.42;99630.91;5046925;28;20048;-60
2023/06/30 03:56:09;;;;;;;2.38;1.35;;;;;;;14.89;95.56;99626.84;5029126;28;20018;-61
2023/06/30 03:58:34;;;;;;;6.63;1.88;;;;;;;14.86;94.23;99628.66;5047110;28;20035;-58
2023/06/30 04:01:00;;;;;;;3.08;2.28;;;;;;;14.86;94.61;99620.81;5046918;28;20025;-59
2023/06/30 04:03:26;;;;;;;8.27;1.30;;;;;;;14.87;95.27;99627.72;5046852;28;20029;-60
2023/06/30 04:05:51;;;;;;;8.60;1.77;;;;;;;14.84;94.80;99622.63;5046808;28;20089;-60
2023/06/30 04:08:17;;;;;;;12.48;1.83;;;;;;;14.86;94.73;99626.03;5046510;28;20045;-58
2023/06/30 04:10:43;;;;;;;2.13;1.33;;;;;;;14.87;94.33;99629.50;5046960;28;20036;-58
2023/06/30 04:13:09;;;;;;;8.85;1.73;;;;;;;14.89;94.04;99626.84;5046808;28;20036;-60
2023/06/30 04:15:35;;;;;;;8.00;2.42;;;;;;;14.85;93.44;99629.56;5046539;28;20025;-59
2023/06/30 04:18:00;;;;;;;6.07;2.33;;;;;;;14.89;93.87;99627.66;5046669;28;20021;-59
2023/06/30 04:20:26;;;;;;;5.07;1.52;;;;;;;14.89;93.44;99616.38;5046532;28;20517;-59
2023/06/30 04:22:51;;;;;;;4.53;1.67;;;;;;;14.95;92.98;99630.03;5046248;28;20029;-59
2023/06/30 04:25:17;;;;;;;11.65;2.55;;;;;;;14.93;93.70;99615.34;5046479;28;20094;-59
2023/06/30 04:27:43;;;;;;;4.05;2.47;;;;;;;14.98;93.16;99624.69;5027990;28;20052;-59
2023/06/30 04:30:09;;;;;;;7.70;1.77;;;;;;;14.95;92.32;99635.25;5046253;28;20021;-58
2023/06/30 04:32:34;;;;;;;8.02;1.80;;;;;;;14.99;92.33;99630.78;5046365;28;20028;-58
2023/06/30 04:35:00;;;;;;;7.68;2.42;;;;;;;15.02;92.60;99641.09;5046020;28;20065;-59
2023/06/30 04:37:29;;;;;;;7.72;2.95;;;;;;;15.03;92.25;99628.91;5045978;28;20052;-58
2023/06/30 04:39:58;;;;;;;8.45;2.78;;;;;;;15.06;91.93;99632.25;5046330;28;20022;-59
2023/06/30 04:42:27;;;;;;;10.75;1.88;;;;;;;15.04;90.74;99636.69;5046096;28;20339;-58
2023/06/30 04:44:52;;;;;;;13.70;3.00;;;;;;;15.01;89.88;99628.97;5046044;28;20021;-57
2023/06/30 04:47:18;;;;;;;8.27;2.42;;;;;;;15.01;89.24;99634.19;5045367;28;20025;-59
2023/06/30 04:49:44;;;;;;;18.50;2.15;;;;;;;15.05;89.21;99638.38;5045848;28;20069;-60
2023/06/30 04:52:09;;;;;;;11.43;1.75;;;;;;;15.08;88.93;99630.41;5045810;28;20361;-59
2023/06/30 04:54:35;;;;;;;10.23;2.08;;;;;;;15.16;89.75;99630.09;5046051;28;20033;-60
2023/06/30 04:57:00;;;;;;;10.35;2.58;;;;;;;15.21;89.71;99636.00;5046040;28;20045;-59
2023/06/30 04:59:26;;;;;;;12.43;2.10;;;;;;;15.26;88.83;99627.97;5045925;28;20029;-59
2023/06/30 05:01:51;;;;;;;17.42;3.20;;;;;;;15.35;89.42;99630.19;5045544;28;20026;-60
2023/06/30 05:04:17;;;;;;;7.40;2.22;;;;;;;15.36;88.43;99623.22;5045855;28;20048;-59
2023/06/30 05:06:43;;;;;;;10.75;1.92;;;;;;;15.40;87.50;99623.94;5045534;28;20052;-60
2023/06/30 05:09:08;;;;;;;13.68;2.60;;;;;;;15.43;87.73;99622.03;5045540;28;20028;-61
2023/06/30 05:11:34;;;;;;;7.28;2.40;;;;;;;15.43;86.12;99623.81;5045772;28;20473;-61
2023/06/30 05:13:59;;;;;;;5.82;2.30;;;;;;;15.50;86.19;99627.88;5045723;28;20381;-61
2023/06/30 05:16:25;;;;;;;8.93;2.05;;;;;;;15.52;85.68;99617.34;5045529;28;20119;-60
2023/06/30 05:18:50;;;;;;;15.82;2.95;;;;;;;15.55;85.51;99623.31;5045653;28;20028;-61
2023/06/30 05:21:15;;;;;;;3.30;1.90;;;;;;;15.54;84.25;99621.63;5045305;28;20025;-59
2023/06/30 05:23:41;;;;;;;11.95;2.50;;;;;;;15.47;83.12;99609.69;5045203;28;20025;-60
2023/06/30 05:26:06;;;;;;;10.40;3.00;;;;;;;15.44;83.05;99620.28;5045226;28;20033;-57
2023/06/30 05:28:34;;;;;;;6.53;3.53;;;;;;;15.40;83.42;99613.50;5045324;28;20022;-58
2023/06/30 05:30:59;;;;;;;8.63;2.00;;;;;;;15.44;83.15;99623.75;5045389;28;20021;-59
2023/06/30 05:33:25;;;;;;;11.98;3.33;;;;;;;15.45;82.65;99614.97;5045172;28;20481;-59
2023/06/30 05:35:50;;;;;;;5.15;2.47;;;;;;;15.41;82.37;99620.41;5044751;28;20041;-57
2023/06/30 05:38:16;;;;;;;7.85;2.35;;;;;;;15.46;82.80;99613.22;5044842;28;20029;-58
2023/06/30 05:40:41;;;;;;;14.35;2.50;;;;;;;15.55;82.95;99611.97;5044261;28;20030;-57
2023/06/30 05:43:07;;;;;;;8.75;2.03;;;;;;;15.60;82.15;99610.88;5044971;28;20157;-58
2023/06/30 05:45:32;;;;;;;6.35;2.17;;;;;;;15.64;82.10;99616.00;5045227;28;20085;-59
2023/06/30 05:47:57;;;;;;;17.55;4.00;;;;;;;15.60;80.53;99613.50;5045145;28;20052;-57
2023/06/30 05:50:23;;;;;;;15.13;2.38;;;;;;;15.64;80.55;99610.75;5043682;28;20026;-57
2023/06/30 05:52:49;;;;;;;8.23;2.72;;;;;;;15.70;81.89;99613.09;5027182;28;20063;-59
2023/06/30 05:55:15;;;;;;;8.93;2.75;;;;;;;15.74;81.14;99617.28;5045147;28;20021;-59
2023/06/30 05:57:40;;;;;;;7.97;1.95;;;;;;;15.71;80.15;99612.19;5045152;28;20029;-57
2023/06/30 06:00:07;;;;;;;8.13;2.85;;;;;;;15.67;80.52;99616.69;5044938;28;20025;-58
2023/06/30 06:02:33;;;;;;;13.50;2.63;;;;;;;15.67;80.00;99608.84;5044849;28;20049;-58
2023/06/30 06:04:59;;;;;;;6.90;2.55;;;;;;;15.68;79.91;99617.56;5043958;28;20025;-59
2023/06/30 06:07:24;;;;;;;4.45;2.15;;;;;;;15.67;79.57;99610.63;5044239;28;20637;-59
2023/06/30 06:09:49;;;;;;;19.33;3.78;;;;;;;15.70;79.91;99608.72;5045014;28;20018;-61
2023/06/30 06:12:15;;;;;;;16.77;2.90;;;;;;;15.69;79.19;99611.38;5044598;28;20041;-59
2023/06/30 06:14:41;;;;;;;9.18;2.40;;;;;;;15.68;79.01;99622.78;5044468;28;20021;-58
2023/06/30 06:17:06;;;;;;;17.40;2.78;;;;;;;15.70;78.75;99618.34;5044900;28;20049;-58
2023/06/30 06:19:32;;;;;;;11.60;3.45;;;;;;;15.72;78.34;99617.34;5044943;28;20030;-60
2023/06/30 06:21:57;;;;;;;14.10;2.30;;;;;;;15.81;78.94;99613.50;5044654;28;20026;-57
2023/06/30 06:24:23;;;;;;;13.30;3.65;;;;;;;15.80;78.33;99618.81;5044736;28;20120;-58
2023/06/30 06:26:48;;;;;;;7.45;2.15;;;;;;;15.80;78.38;99618.81;5044820;28;20049;-58
2023/06/30 06:29:18;;;;;;;8.20;3.33;;;;;;;15.63;78.54;99593.34;5044690;28;20052;-59
2023/06/30 06:31:45;;;;;;;5.22;2.58;;;;;;;15.80;77.67;99629.28;5044652;28;20029;-58
2023/06/30 06:34:11;;;;;;;4.63;2.75;;;;;;;15.78;77.63;99621.50;5044648;28;20049;-60
2023/06/30 06:36:37;;;;;;;9.98;3.00;;;;;;;15.84;77.93;99618.59;5044560;28;20037;-59
2023/06/30 06:39:03;;;;;;;7.28;2.20;;;;;;;15.92;78.36;99620.03;5044552;28;20025;-57
2023/06/30 06:41:28;;;;;;;10.15;2.45;;;;;;;15.96;77.66;99621.59;5044544;28;20029;-60
2023/06/30 06:43:53;;;;;;;11.13;2.60;;;;;;;16.02;77.07;99623.13;5044684;28;20140;-57
2023/06/30 06:46:19;;;;;;;8.95;2.65;;;;;;;16.02;76.94;99631.84;5044419;28;20025;-58
2023/06/30 06:48:44;;;;;;;7.13;2.88;;;;;;;16.10;76.83;99640.19;5044628;28;20363;-58
2023/06/30 06:51:10;;;;;;;7.38;3.28;;;;;;;16.22;77.20;99633.56;5044950;28;20432;-58
2023/06/30 06:53:35;;;;;;;6.10;1.88;;;;;;;16.38;77.13;99637.25;5048060;28;20097;-60
2023/06/30 06:56:03;;;;;;;7.03;2.30;;;;;;;16.39;76.63;99633.75;5048221;28;20021;-60
2023/06/30 06:58:30;;;;;;;6.00;2.78;;;;;;;16.35;75.08;99633.03;5048326;28;20136;-60
2023/06/30 07:00:56;;;;;;;14.65;3.08;;;;;;;16.40;74.37;99635.44;5048036;28;20029;-60
2023/06/30 07:03:22;;;;;;;5.68;2.70;;;;;;;16.39;73.00;99641.59;5048291;28;20036;-59
2023/06/30 07:05:48;;;;;;;3.28;2.05;;;;;;;16.37;73.62;99644.28;5047898;28;20029;-59
2023/06/30 07:08:14;;;;;;;17.67;3.13;;;;;;;16.31;71.70;99642.78;5047822;28;20029;-60
2023/06/30 07:10:41;;;;;;;9.38;2.25;;;;;;;16.31;71.82;99642.78;5048112;28;20032;-59
2023/06/30 07:13:06;;;;;;;7.22;2.13;;;;;;;16.23;71.41;99648.34;5047846;28;20029;-59
2023/06/30 07:15:33;;;;;;;3.22;1.58;;;;;;;16.18;71.20;99636.41;5047908;28;20037;-59
2023/06/30 07:17:58;;;;;;;2.85;1.38;;;;;;;16.29;71.51;99649.88;5047791;28;20068;-60
2023/06/30 07:20:24;;;;;;;19.45;3.25;;;;;;;16.26;70.13;99643.91;5047783;28;20123;-59
2023/06/30 07:22:51;;;;;;;9.13;2.25;;;;;;;16.34;70.99;99658.34;5047540;28;20036;-59
2023/06/30 07:25:16;;;;;;;11.88;2.15;;;;;;;16.32;69.93;99654.13;5047685;28;20053;-60
2023/06/30 07:27:51;;;;;;;4.40;2.25;;;;;;;16.36;70.57;99655.66;5047707;28;20025;-58
2023/06/30 07:30:17;;;;;;;9.48;3.05;;;;;;;16.43;70.60;99645.75;5047739;28;20071;-60
2023/06/30 07:32:42;;;;;;;5.30;2.28;;;;;;;16.53;70.69;99643.59;5047303;28;20021;-60
2023/06/30 07:35:08;;;;;;;4.90;3.08;;;;;;;16.52;69.72;99640.09;5046747;28;20072;-60
2023/06/30 07:37:33;;;;;;;6.25;1.83;;;;;;;16.52;69.51;99640.09;5047054;28;20490;-59
2023/06/30 07:39:59;;;;;;;5.57;2.75;;;;;;;16.54;69.44;99640.91;5047645;28;20022;-59
2023/06/30 07:42:24;;;;;;;5.15;2.38;;;;;;;16.56;69.24;99651.31;5047247;28;20532;-60
2023/06/30 07:44:50;;;;;;;1.77;1.35;;;;;;;16.56;68.90;99653.94;5047277;28;20022;-60
2023/06/30 07:47:17;;;;;;;10.52;2.55;;;;;;;16.50;67.69;99659.44;5047184;28;20083;-60
2023/06/30 07:49:42;;;;;;;6.28;2.28;;;;;;;16.45;67.46;99649.19;5047131;28;20025;-60
2023/06/30 07:52:08;;;;;;;6.60;2.35;;;;;;;16.47;68.54;99653.41;5047180;28;20021;-59
2023/06/30 07:54:33;;;;;;;7.28;2.28;;;;;;;16.56;67.84;99652.16;5046866;28;20021;-59
2023/06/30 07:56:58;;;;;;;5.70;1.88;;;;;;;16.59;67.17;99652.03;5046845;28;20022;-59
2023/06/30 07:59:24;;;;;;;3.63;2.60;;;;;;;16.74;67.92;99647.00;5047073;28;20110;-58
2023/06/30 08:01:49;;;;;;;3.83;2.28;;;;;;;16.76;66.16;99658.25;5046842;28;20029;-60
2023/06/30 08:04:14;;;;;;;3.53;2.42;;;;;;;16.80;66.91;99651.09;5046072;28;20036;-60
2023/06/30 08:06:40;;;;;;;15.55;2.72;;;;;;;16.87;65.90;99656.91;5046824;28;20052;-60
2023/06/30 08:09:05;;;;;;;5.50;1.98;;;;;;;16.93;65.83;99664.47;5046707;28;20091;-59
2023/06/30 08:11:31;;;;;;;9.27;2.58;;;;;;;16.93;65.41;99654.81;5046872;28;20013;-60
2023/06/30 08:13:56;;;;;;;9.07;1.88;;;;;;;17.13;65.43;99663.56;5046821;28;20029;-59
2023/06/30 08:16:22;;;;;;;7.78;2.25;;;;;;;17.20;64.71;99672.81;5046763;28;20033;-60
2023/06/30 08:18:48;;;;;;;7.30;1.98;;;;;;;17.29;65.04;99676.78;5046654;28;20530;-58
2023/06/30 08:21:13;;;;;;;3.13;1.75;;;;;;;17.44;63.53;99669.91;5046241;28;20029;-59
2023/06/30 08:23:39;;;;;;;5.78;1.52;;;;;;;17.50;61.57;99667.94;5046342;28;20053;-60
2023/06/30 08:26:04;;;;;;;2.72;1.75;;;;;;;17.56;61.92;99673.72;5046382;28;20109;-58
2023/06/30 08:28:30;;;;;;;3.38;1.45;;;;;;;17.71;61.61;99671.28;5046751;28;20429;-60
2023/06/30 08:30:55;;;;;;;7.43;2.25;;;;;;;17.83;61.39;99669.78;5046241;28;20029;-59
2023/06/30 08:33:28;;;;;;;4.82;2.58;;;;;;;17.90;60.56;99659.84;5046291;28;20048;-59
2023/06/30 08:35:54;;;;;;;9.95;2.50;;;;;;;18.19;60.64;99665.38;5046127;28;20133;-61
2023/06/30 08:38:19;;;;;;;2.60;1.58;;;;;;;18.25;59.17;99679.97;5046124;28;20061;-60
2023/06/30 08:40:46;;;;;;;7.63;1.80;;;;;;;18.33;58.41;99664.66;5046134;28;20093;-59
2023/06/30 08:43:12;;;;;;;7.30;2.25;;;;;;;18.57;60.03;99670.41;5046043;28;20108;-60
2023/06/30 08:45:39;;;;;;;7.57;3.30;;;;;;;18.79;57.37;99663.09;5046050;28;20028;-61
2023/06/30 08:48:05;;;;;;;12.18;2.38;;;;;;;18.79;58.09;99674.47;5045913;28;20032;-59
2023/06/30 08:50:35;;;;;;;4.20;1.92;;;;;;;18.84;57.46;99676.84;5046124;28;20055;-58
2023/06/30 08:53:02;;;;;;;6.63;2.08;;;;;;;18.94;58.09;99674.56;5027751;28;20489;-62
2023/06/30 08:55:27;;;;;;;3.58;1.80;;;;;;;19.01;58.25;99681.16;5045826;28;20028;-60
2023/06/30 08:57:56;;;;;;;9.32;2.05;;;;;;;19.18;56.80;99680.28;5046119;28;20078;-59
2023/06/30 09:00:22;;;;;;;11.13;2.58;;;;;;;19.44;56.34;99682.38;5046011;28;20021;-60
2023/06/30 09:02:48;;;;;;;12.73;1.92;;;;;;;19.56;54.73;99686.91;5045795;28;20029;-59
2023/06/30 09:05:14;;;;;;;3.10;1.70;;;;;;;19.88;55.78;99688.59;5045626;28;20032;-59
2023/06/30 09:07:50;;;;;;;5.63;2.35;;;;;;;20.69;53.81;99682.91;5045133;28;20025;-59
2023/06/30 09:10:15;;;;;;;4.90;1.80;;;;;;;20.81;52.92;99679.50;5045824;28;20026;-60
2023/06/30 09:12:43;;;;;;;3.90;1.88;;;;;;;20.63;52.57;99686.78;5045431;28;20025;-59
2023/06/30 09:15:09;;;;;;;3.42;1.77;;;;;;;20.48;51.63;99685.09;5045547;28;20025;-60
2023/06/30 09:17:35;;;;;;;5.32;1.90;;;;;;;20.30;52.27;99688.75;5045593;28;20107;-60
2023/06/30 09:20:01;;;;;;;3.88;1.75;;;;;;;20.30;52.00;99699.31;5045546;28;20025;-60
2023/06/30 09:22:26;;;;;;;6.65;1.15;;;;;;;20.13;51.67;99688.94;5044998;28;20069;-60
2023/06/30 09:24:51;;;;;;;5.07;2.03;;;;;;;19.88;52.08;99699.13;5045681;28;20018;-59
2023/06/30 09:27:18;;;;;;;9.68;1.77;;;;;;;19.73;52.36;99695.59;5045269;28;20124;-58
2023/06/30 09:29:53;;;;;;;6.40;1.48;;;;;;;19.79;54.12;99702.31;5045246;28;20047;-58
2023/06/30 09:32:24;;;;;;;8.77;1.67;;;;;;;20.21;51.73;99699.88;5045233;28;20068;-59
2023/06/30 09:34:53;;;;;;;4.43;1.52;;;;;;;20.18;51.37;99705.31;5027246;28;20065;-59
2023/06/30 09:37:18;;;;;;;2.97;1.45;;;;;;;19.99;51.15;99700.28;5045032;28;20452;-60
2023/06/30 09:39:49;;;;;;;7.20;1.42;;;;;;;19.82;52.07;99705.59;5045176;28;20029;-59
2023/06/30 09:42:15;;;;;;;7.88;2.00;;;;;;;19.83;51.88;99698.56;5045199;28;20072;-60
2023/06/30 09:44:41;;;;;;;2.50;1.30;;;;;;;19.92;50.80;99694.53;5045310;28;20032;-59
2023/06/30 09:47:07;;;;;;;4.38;2.28;;;;;;;20.37;51.71;99691.88;5044976;28;20026;-60
2023/06/30 09:49:32;;;;;;;6.97;1.48;;;;;;;21.14;50.98;99689.81;5045405;28;20052;-60
2023/06/30 09:52:01;;;;;;;5.22;2.13;;;;;;;21.86;48.29;99693.09;5044937;28;20033;-59
2023/06/30 09:54:27;;;;;;;4.97;2.08;;;;;;;21.50;47.69;99693.63;5044932;28;20033;-59
2023/06/30 09:56:59;;;;;;;1.73;1.27;;;;;;;21.64;49.11;99684.81;5045001;28;20377;-60
2023/06/30 09:59:25;;;;;;;6.70;1.92;;;;;;;21.84;48.16;99684.47;5044852;28;20032;-60
2023/06/30 10:01:57;;;;;;;2.72;1.48;;;;;;;22.13;48.01;99678.97;5044725;28;20032;-60
2023/06/30 10:04:25;;;;;;;1.70;0.93;;;;;;;23.07;47.50;99688.34;5045007;28;20021;-60
2023/06/30 10:06:52;;;;;;;4.93;1.80;;;;;;;23.95;43.72;99686.28;5044866;28;20036;-60
2023/06/30 10:09:20;;;;;;;6.78;1.08;;;;;;;23.82;43.76;99691.69;5044564;28;20046;-59
2023/06/30 10:11:51;;;;;;;2.30;1.40;;;;;;;23.40;43.45;99684.22;5044866;28;20028;-60
2023/06/30 10:14:21;;;;;;;3.67;1.58;;;;;;;22.76;44.20;99686.94;5045033;28;20025;-59
2023/06/30 10:16:49;;;;;;;3.83;1.80;;;;;;;22.76;43.19;99688.75;5044769;28;20025;-59
2023/06/30 10:19:15;;;;;;;4.53;1.63;;;;;;;22.60;43.70;99696.94;5044828;28;20032;-60
2023/06/30 10:21:41;;;;;;;2.20;1.08;;;;;;;22.14;45.02;99689.44;5044665;28;20025;-60
2023/06/30 10:24:07;;;;;;;1.50;0.82;;;;;;;22.20;45.26;99685.53;5044469;28;20037;-60
2023/06/30 10:26:36;;;;;;;3.13;1.27;;;;;;;22.82;44.86;99692.75;5045881;28;20030;-60
2023/06/30 10:29:02;;;;;;;4.90;1.02;;;;;;;23.57;42.37;99682.94;5048914;28;20049;-59
2023/06/30 10:31:28;;;;;;;2.63;0.95;;;;;;;24.16;40.76;99687.44;5048721;28;20021;-60
2023/06/30 10:33:53;;;;;;;2.25;1.17;;;;;;;24.58;41.56;99706.28;5048346;28;20523;-59
2023/06/30 10:36:19;;;;;;;5.40;1.85;;;;;;;25.20;41.02;99711.13;5048605;28;20049;-59
2023/06/30 10:38:46;;;;;;;4.50;1.02;;;;;;;25.84;39.02;99691.78;5046990;28;20112;-60
2023/06/30 10:41:19;;;;;;;1.38;0.68;;;;;;;26.14;36.46;99684.81;5048511;28;20049;-60
2023/06/30 10:44:20;;;;;;;1.98;0.77;;;;;;;25.99;36.06;99708.28;5048301;28;20034;-60
2023/06/30 10:46:49;;;;;;;1.88;0.63;;;;;;;25.79;37.88;99704.63;5016260;28;20056;-60
2023/06/30 10:49:39;;;;;;;3.20;1.38;;;;;;;25.72;37.52;99691.84;5048549;28;20021;-60
2023/06/30 10:52:11;;;;;;;6.18;1.38;;;;;;;25.67;36.73;99691.38;5048457;28;20105;-60
2023/06/30 10:54:46;;;;;;;8.57;1.20;;;;;;;25.32;36.68;99693.34;5048120;28;20453;-59
2023/06/30 10:57:17;;;;;;;1.67;1.13;;;;;;;25.12;37.64;99693.19;5048009;28;20022;-60
2023/06/30 10:59:44;;;;;;;5.28;1.20;;;;;;;25.05;38.32;99680.53;5048316;28;20026;-60
2023/06/30 11:02:14;;;;;;;3.22;0.93;;;;;;;24.67;39.06;99690.56;5048181;28;20033;-60
2023/06/30 11:04:43;;;;;;;1.67;0.73;;;;;;;24.20;39.47;99676.47;5047989;28;20081;-61
2023/06/30 11:07:11;;;;;;;4.93;1.27;;;;;;;23.55;41.22;99692.81;5047832;28;20036;-60
2023/06/30 11:09:48;;;;;;;3.78;1.08;;;;;;;23.31;41.47;99700.75;5047512;28;20022;-59
2023/06/30 11:12:18;;;;;;;0.95;0.88;;;;;;;22.97;41.90;99698.75;5047214;28;20025;-60
2023/06/30 11:14:57;;;;;;;3.03;1.25;;;;;;;22.69;42.27;99709.50;5047822;28;20033;-60
2023/06/30 11:17:46;;;;;;;5.97;1.05;;;;;;;22.63;42.97;99700.22;5047409;28;20474;-60
2023/06/30 11:20:12;;;;;;;2.67;0.88;;;;;;;22.55;42.71;99673.44;5033359;28;20116;-60
2023/06/30 11:22:39;;;;;;;3.75;1.25;;;;;;;22.01;43.11;99702.63;5047300;28;20057;-57
2023/06/30 11:25:09;;;;;;;3.63;0.85;;;;;;;21.59;43.92;99688.69;5047938;28;20105;-59
2023/06/30 11:27:35;;;;;;;2.25;0.90;;;;;;;21.38;44.78;99690.03;5047705;28;20028;-59